createdAt,value
2022-08-17T00:05:10.806Z,69.64
2022-08-17T00:15:50.676Z,65.09
2022-08-17T00:19:10.549Z,63.10
2022-08-17T00:22:34.993Z,62.45
2022-08-17T00:25:41.119Z,64.38
2022-08-17T00:29:00.319Z,62.16
2022-08-17T00:33:14.104Z,64.38
2022-08-17T00:38:38.876Z,66.45
2022-08-17T00:41:31.461Z,67.63
2022-08-17T00:44:30.383Z,68.88
2022-08-17T00:47:18.291Z,70.13
2022-08-17T00:49:59.737Z,68.48
2022-08-17T00:52:42.005Z,65.69
2022-08-17T00:58:19.846Z,66.22
2022-08-17T01:01:28.610Z,68.31
2022-08-17T01:04:13.320Z,66.07
2022-08-17T01:06:57.626Z,65.04
2022-08-17T01:09:32.089Z,62.25
2022-08-17T01:12:27.984Z,61.04
2022-08-17T01:15:04.914Z,61.07
2022-08-17T01:17:52.489Z,62.56
2022-08-17T01:20:47.863Z,59.30
2022-08-17T01:23:33.064Z,58.54
2022-08-17T01:26:19.606Z,59.97
2022-08-17T01:29:15.420Z,61.79
2022-08-17T01:35:01.436Z,59.65
2022-08-17T01:37:41.691Z,60.20
2022-08-17T01:40:45.600Z,59.63
2022-08-17T01:43:34.169Z,58.67
2022-08-17T01:46:28.209Z,59.50
2022-08-17T01:49:08.312Z,59.07
2022-08-17T01:51:51.497Z,58.28
2022-08-17T01:54:38.725Z,58.86
2022-08-17T01:57:29.499Z,58.09
2022-08-17T02:00:59.630Z,60.24
2022-08-17T02:04:00.786Z,59.54
2022-08-17T02:06:58.019Z,58.77
2022-08-17T02:09:41.173Z,58.61
2022-08-17T02:12:53.070Z,59.31
2022-08-17T02:15:51.232Z,59.45
2022-08-17T02:18:41.931Z,58.70
2022-08-17T02:25:02.136Z,56.49
2022-08-17T02:30:50.094Z,57.14
2022-08-17T02:34:14.103Z,56.31
2022-08-17T02:40:35.062Z,55.68
2022-08-17T02:43:33.913Z,56.71
2022-08-17T02:46:47.302Z,58.32
2022-08-17T02:50:17.674Z,57.86
2022-08-17T02:53:16.456Z,57.39
2022-08-17T02:59:53.535Z,56.30
2022-08-17T03:02:44.415Z,55.98
2022-08-17T03:05:42.017Z,55.74
2022-08-17T03:08:32.807Z,55.15
2022-08-17T03:11:18.145Z,54.62
2022-08-17T03:14:02.227Z,55.57
2022-08-17T03:20:02.838Z,56.25
2022-08-17T03:22:53.585Z,56.23
2022-08-17T03:26:15.505Z,55.90
2022-08-17T03:33:39.446Z,53.70
2022-08-17T03:51:14.863Z,51.89
2022-08-17T03:54:47.925Z,50.16
2022-08-17T04:01:14.212Z,54.41
2022-08-17T04:14:56.765Z,50.90
2022-08-17T04:25:33.861Z,55.55
2022-08-17T04:28:27.460Z,57.08
2022-08-17T04:50:22.940Z,57.10
2022-08-17T04:56:50.079Z,56.53
2022-08-17T05:00:20.826Z,55.51
2022-08-17T05:06:55.101Z,55.79
2022-08-17T05:16:34.326Z,52.81
2022-08-17T05:35:53.471Z,54.13
2022-08-17T05:38:40.836Z,53.47
2022-08-17T05:48:05.137Z,53.97
2022-08-17T05:52:02.434Z,53.56
2022-08-17T05:58:58.246Z,52.94
2022-08-17T06:22:35.705Z,52.75
2022-08-17T06:25:54.989Z,53.20
2022-08-17T06:29:03.389Z,54.00
2022-08-17T06:43:48.057Z,54.84
2022-08-17T06:47:28.776Z,55.08
2022-08-17T06:53:52.032Z,53.98
2022-08-17T07:00:58.839Z,54.35
2022-08-17T07:05:01.145Z,54.89
2022-08-17T07:09:08.864Z,54.38
2022-08-17T07:16:00.075Z,54.87
2022-08-17T07:18:45.002Z,54.68
2022-08-17T07:21:50.493Z,54.84
2022-08-17T07:24:48.380Z,54.59
2022-08-17T07:27:28.241Z,52.91
2022-08-17T07:30:47.113Z,53.84
2022-08-17T07:36:50.104Z,54.05
2022-08-17T07:40:04.463Z,53.45
2022-08-17T07:42:48.276Z,52.29
2022-08-17T07:46:02.649Z,52.94
2022-08-17T07:52:47.796Z,56.56
2022-08-17T08:15:56.792Z,56.40
2022-08-17T08:22:58.425Z,57.52
2022-08-17T08:26:18.846Z,58.14
2022-08-17T08:32:46.984Z,59.46
2022-08-17T08:35:38.170Z,59.20
2022-08-17T08:38:49.915Z,59.40
2022-08-17T08:45:06.406Z,60.36
2022-08-17T08:51:52.525Z,61.56
2022-08-17T08:55:14.122Z,62.07
2022-08-17T08:58:06.001Z,63.08
2022-08-17T09:01:22.194Z,63.40
2022-08-17T09:05:10.401Z,64.12
2022-08-17T09:08:18.221Z,64.78
2022-08-17T09:11:23.368Z,65.43
2022-08-17T09:14:45.420Z,66.39
2022-08-17T09:18:08.527Z,67.36
2022-08-17T09:21:07.446Z,67.59
2022-08-17T09:24:02.983Z,68.21
2022-08-17T09:27:03.889Z,69.08
2022-08-17T09:29:45.284Z,69.59
2022-08-17T09:32:37.058Z,69.99
2022-08-17T09:35:51.667Z,70.30
2022-08-17T09:41:49.413Z,71.56
2022-08-17T09:44:39.955Z,71.99
2022-08-17T09:47:41.907Z,72.71
2022-08-17T09:50:55.586Z,74.30
2022-08-17T09:53:31.681Z,75.08
2022-08-17T09:57:11.723Z,75.90
2022-08-17T10:00:03.769Z,77.06
2022-08-17T10:03:18.029Z,77.99
2022-08-17T10:09:26.360Z,79.07
2022-08-17T10:12:46.468Z,79.73
2022-08-17T10:15:51.963Z,80.00
2022-08-17T10:28:31.528Z,79.70
2022-08-17T10:31:35.785Z,79.90
2022-08-17T10:34:47.265Z,80.39
2022-08-17T10:37:55.350Z,81.20
2022-08-17T10:40:52.603Z,81.91
2022-08-17T10:44:38.120Z,82.50
2022-08-17T10:47:18.267Z,83.15
2022-08-17T10:50:05.768Z,83.87
2022-08-17T10:53:21.015Z,84.31
2022-08-17T10:59:59.038Z,86.24
2022-08-17T11:03:07.808Z,86.96
2022-08-17T11:06:21.008Z,87.46
2022-08-17T11:12:42.354Z,87.92
2022-08-17T11:15:36.613Z,87.94
2022-08-17T11:18:55.131Z,87.91
2022-08-17T11:22:18.997Z,87.73
2022-08-17T11:25:07.724Z,87.70
2022-08-17T11:27:54.041Z,87.95
2022-08-17T11:31:06.820Z,88.55
2022-08-17T11:34:32.209Z,89.15
2022-08-17T11:41:12.934Z,90.70
2022-08-17T11:44:30.304Z,91.41
2022-08-17T11:51:14.089Z,92.59
2022-08-17T11:54:33.458Z,92.84
2022-08-17T11:57:47.068Z,93.09
2022-08-17T12:01:03.843Z,93.39
2022-08-17T12:07:09.311Z,94.57
2022-08-17T12:09:55.358Z,94.84
2022-08-17T12:12:40.833Z,95.28
2022-08-17T12:15:30.634Z,95.21
2022-08-17T12:18:18.838Z,95.33
2022-08-17T12:21:04.828Z,95.00
2022-08-17T12:30:16.377Z,94.87
2022-08-17T12:36:22.435Z,93.96
2022-08-17T12:39:35.038Z,94.07
2022-08-17T12:42:09.414Z,94.10
2022-08-17T12:47:52.567Z,93.92
2022-08-17T12:51:02.065Z,93.90
2022-08-17T12:54:15.102Z,94.64
2022-08-17T12:57:38.858Z,95.22
2022-08-17T13:03:36.804Z,95.68
2022-08-17T13:06:28.344Z,95.55
2022-08-17T13:09:23.040Z,95.15
2022-08-17T13:15:28.431Z,95.19
2022-08-17T13:18:52.685Z,95.56
2022-08-17T13:24:45.231Z,96.54
2022-08-17T13:27:33.742Z,96.31
2022-08-17T13:30:21.381Z,95.77
2022-08-17T13:33:22.829Z,95.32
2022-08-17T13:36:28.752Z,94.78
2022-08-17T13:39:41.385Z,94.24
2022-08-17T13:46:09.413Z,94.84
2022-08-17T13:48:46.730Z,94.95
2022-08-17T13:51:53.371Z,94.68
2022-08-17T13:54:56.415Z,94.22
2022-08-17T13:57:39.709Z,93.95
2022-08-17T14:00:49.674Z,94.31
2022-08-17T14:03:29.107Z,93.88
2022-08-17T14:06:13.241Z,93.82
2022-08-17T14:09:14.933Z,94.02
2022-08-17T14:15:17.363Z,93.41
2022-08-17T14:18:09.066Z,93.83
2022-08-17T14:20:48.624Z,93.82
2022-08-17T14:23:31.434Z,93.85
2022-08-17T14:26:23.400Z,93.82
2022-08-17T14:29:43.537Z,94.17
2022-08-17T14:32:45.747Z,94.61
2022-08-17T14:35:42.041Z,94.46
2022-08-17T14:41:34.349Z,94.34
2022-08-17T14:44:16.391Z,94.22
2022-08-17T14:52:59.192Z,94.52
2022-08-17T14:55:40.891Z,94.89
2022-08-17T14:58:52.477Z,95.34
2022-08-17T15:01:33.348Z,96.02
2022-08-17T15:04:09.999Z,96.33
2022-08-17T15:06:52.463Z,96.33
2022-08-17T15:09:56.526Z,96.26
2022-08-17T15:12:49.784Z,95.96
2022-08-17T15:15:52.719Z,96.04
2022-08-17T15:18:41.973Z,95.64
2022-08-17T15:24:47.465Z,96.83
2022-08-17T15:27:32.374Z,96.83
2022-08-17T15:30:16.802Z,96.75
2022-08-17T15:33:02.715Z,96.81
2022-08-17T15:35:44.309Z,97.02
2022-08-17T15:38:34.528Z,97.44
2022-08-17T15:41:22.382Z,97.67
2022-08-17T15:44:09.491Z,97.73
2022-08-17T15:46:54.279Z,98.03
2022-08-17T15:49:49.480Z,98.41
2022-08-17T15:52:35.858Z,98.60
2022-08-17T15:55:24.230Z,98.43
2022-08-17T15:58:15.325Z,98.54
2022-08-17T16:01:18.624Z,99.10
2022-08-17T16:04:29.778Z,99.20
2022-08-17T16:07:13.790Z,99.71
2022-08-17T16:13:01.454Z,98.96
2022-08-17T16:15:57.148Z,99.29
2022-08-17T16:18:40.486Z,99.74
2022-08-17T16:21:43.117Z,100.00
2022-08-17T16:24:56.785Z,100.00
2022-08-17T16:28:05.511Z,100.00
2022-08-17T16:31:01.210Z,100.00
2022-08-17T16:33:41.607Z,99.53
2022-08-17T16:36:22.017Z,99.26
2022-08-17T16:39:32.092Z,98.56
2022-08-17T16:42:11.475Z,98.48
2022-08-17T16:44:51.823Z,98.25
2022-08-17T16:47:34.914Z,98.06
2022-08-17T16:50:16.805Z,98.00
2022-08-17T16:53:00.437Z,97.94
2022-08-17T16:55:42.185Z,97.86
2022-08-17T16:58:23.576Z,96.97
2022-08-17T17:01:08.018Z,96.61
2022-08-17T17:04:08.424Z,96.81
2022-08-17T17:07:07.594Z,96.86
2022-08-17T17:10:19.192Z,96.84
2022-08-17T17:13:13.421Z,96.55
2022-08-17T17:15:58.158Z,96.42
2022-08-17T17:22:00.365Z,95.89
2022-08-17T17:25:17.707Z,95.87
2022-08-17T17:28:06.718Z,95.64
2022-08-17T17:31:18.978Z,95.65
2022-08-17T17:37:20.001Z,95.84
2022-08-17T17:40:03.123Z,96.42
2022-08-17T17:42:37.499Z,96.65
2022-08-17T17:45:22.043Z,96.84
2022-08-17T17:48:07.659Z,97.26
2022-08-17T17:51:04.536Z,97.21
2022-08-17T17:53:59.785Z,97.38
2022-08-17T17:57:09.213Z,97.50
2022-08-17T18:03:00.591Z,97.88
2022-08-17T18:06:12.930Z,98.37
2022-08-17T18:09:25.383Z,98.46
2022-08-17T18:12:23.676Z,98.65
2022-08-17T18:15:25.796Z,98.49
2022-08-17T18:18:50.114Z,98.41
2022-08-17T18:22:04.137Z,98.55
2022-08-17T18:25:03.124Z,98.48
2022-08-17T18:31:04.724Z,98.33
2022-08-17T18:33:56.467Z,98.51
2022-08-17T18:36:51.133Z,98.46
2022-08-17T18:39:35.713Z,98.32
2022-08-17T18:42:41.433Z,98.48
2022-08-17T18:45:30.585Z,97.77
2022-08-17T18:48:26.956Z,97.02
2022-08-17T18:51:42.706Z,96.96
2022-08-17T18:54:58.821Z,97.62
2022-08-17T18:57:45.951Z,97.48
2022-08-17T19:00:54.358Z,97.09
2022-08-17T19:03:42.430Z,96.84
2022-08-17T19:06:39.080Z,97.34
2022-08-17T19:09:44.070Z,98.25
2022-08-17T19:12:50.189Z,98.27
2022-08-17T19:15:39.972Z,98.05
2022-08-17T19:18:23.552Z,97.73
2022-08-17T19:21:18.063Z,97.02
2022-08-17T19:24:03.843Z,96.87
2022-08-17T19:27:06.155Z,97.05
2022-08-17T19:29:53.269Z,97.06
2022-08-17T19:32:44.893Z,97.14
2022-08-17T19:38:54.963Z,97.38
2022-08-17T19:41:50.975Z,98.24
2022-08-17T19:44:55.800Z,98.40
2022-08-17T19:47:57.085Z,99.48
2022-08-17T19:50:44.488Z,99.41
2022-08-17T19:53:54.170Z,99.10
2022-08-17T19:57:04.885Z,98.95
2022-08-17T20:00:11.516Z,98.38
2022-08-17T20:02:57.109Z,98.25
2022-08-17T20:06:11.628Z,98.38
2022-08-17T20:09:03.546Z,98.42
2022-08-17T20:12:13.507Z,98.34
2022-08-17T20:15:11.117Z,97.92
2022-08-17T20:17:52.697Z,97.61
2022-08-17T20:20:55.863Z,97.13
2022-08-17T20:24:19.548Z,97.08
2022-08-17T20:27:04.068Z,97.19
2022-08-17T20:30:08.985Z,97.14
2022-08-17T20:33:03.650Z,96.83
2022-08-17T20:36:58.342Z,96.79
2022-08-17T20:39:39.205Z,96.37
2022-08-17T20:42:37.026Z,96.12
2022-08-17T20:46:17.720Z,95.00
2022-08-17T20:49:37.985Z,93.70
2022-08-17T20:52:27.693Z,92.82
2022-08-17T20:55:10.709Z,92.65
2022-08-17T20:58:43.891Z,91.80
2022-08-17T21:05:10.062Z,89.27
2022-08-17T21:11:08.509Z,88.47
2022-08-17T21:14:17.870Z,88.73
2022-08-17T21:17:45.769Z,89.00
2022-08-17T21:23:46.732Z,87.97
2022-08-17T21:26:31.289Z,87.77
2022-08-17T21:29:31.967Z,88.15
2022-08-17T21:32:37.379Z,88.16
2022-08-17T21:36:09.818Z,89.01
2022-08-17T21:39:07.284Z,87.64
2022-08-17T21:41:54.227Z,87.89
2022-08-17T21:44:41.222Z,87.98
2022-08-17T21:47:39.044Z,88.24
2022-08-17T21:50:31.715Z,88.69
2022-08-17T21:53:40.589Z,89.18
2022-08-17T21:56:35.820Z,88.53
2022-08-17T21:59:41.111Z,89.72
2022-08-17T22:02:28.788Z,89.96
2022-08-17T22:11:32.473Z,89.34
2022-08-17T22:14:51.491Z,88.10
2022-08-17T22:17:49.287Z,87.90
2022-08-17T22:20:42.371Z,87.65
2022-08-17T22:23:48.326Z,87.10
2022-08-17T22:26:36.979Z,85.54
2022-08-17T22:29:24.724Z,85.14
2022-08-17T22:35:38.347Z,84.04
2022-08-17T22:38:43.766Z,83.10
2022-08-17T22:41:57.416Z,82.56
2022-08-17T22:48:00.904Z,80.80
2022-08-17T22:50:40.619Z,80.93
2022-08-17T22:53:53.782Z,79.46
2022-08-17T22:56:53.136Z,79.04
2022-08-17T23:00:07.161Z,79.27
2022-08-17T23:03:28.689Z,77.83
2022-08-17T23:06:27.748Z,77.53
2022-08-17T23:09:32.899Z,78.13
2022-08-17T23:12:28.077Z,77.56
2022-08-17T23:15:39.757Z,76.65
2022-08-17T23:18:33.520Z,76.46
2022-08-17T23:24:23.429Z,72.47
2022-08-17T23:37:19.152Z,70.04
2022-08-17T23:40:37.313Z,69.79
2022-08-17T23:43:36.421Z,68.88
